createdAt,value
2023-02-09T00:01:37.084Z,74.65
2023-02-09T00:04:03.893Z,75.15
2023-02-09T00:06:30.421Z,74.20
2023-02-09T00:08:58.327Z,73.97
2023-02-09T00:11:48.408Z,73.03
2023-02-09T00:14:17.926Z,72.42
2023-02-09T00:16:45.823Z,73.30
2023-02-09T00:19:13.078Z,73.74
2023-02-09T00:21:40.862Z,72.86
2023-02-09T00:24:08.053Z,74.18
2023-02-09T00:26:34.463Z,73.21
2023-02-09T00:29:00.890Z,72.98
2023-02-09T00:31:27.397Z,72.60
2023-02-09T00:33:53.868Z,72.28
2023-02-09T00:36:20.309Z,72.30
2023-02-09T00:38:47.090Z,72.74
2023-02-09T00:41:14.374Z,72.84
2023-02-09T00:43:40.807Z,73.12
2023-02-09T00:46:07.747Z,73.90
2023-02-09T00:48:34.416Z,72.61
2023-02-09T00:51:01.134Z,73.29
2023-02-09T00:53:27.878Z,72.60
2023-02-09T00:55:54.310Z,73.09
2023-02-09T00:58:20.748Z,72.39
2023-02-09T01:00:49.178Z,73.23
2023-02-09T01:03:15.726Z,72.74
2023-02-09T01:05:42.963Z,73.23
2023-02-09T01:08:09.893Z,73.63
2023-02-09T01:10:38.025Z,73.70
2023-02-09T01:13:04.584Z,73.02
2023-02-09T01:15:31.044Z,72.76
2023-02-09T01:17:58.609Z,72.36
2023-02-09T01:20:25.017Z,72.59
2023-02-09T01:22:51.513Z,72.75
2023-02-09T01:25:17.957Z,72.63
2023-02-09T01:27:44.338Z,73.58
2023-02-09T01:30:11.590Z,72.83
2023-02-09T01:32:37.986Z,72.39
2023-02-09T01:35:04.909Z,71.61
2023-02-09T01:37:34.082Z,72.49
2023-02-09T01:40:00.524Z,72.99
2023-02-09T01:42:27.629Z,72.92
2023-02-09T01:45:00.075Z,73.95
2023-02-09T01:47:26.564Z,73.57
2023-02-09T01:49:53.356Z,74.09
2023-02-09T01:52:25.443Z,73.45
2023-02-09T01:54:57.227Z,73.80
2023-02-09T01:57:27.792Z,73.66
2023-02-09T01:59:58.284Z,74.57
2023-02-09T02:02:25.326Z,74.71
2023-02-09T02:04:52.663Z,75.16
2023-02-09T02:07:32.836Z,75.06
2023-02-09T02:10:01.049Z,75.38
2023-02-09T02:12:27.567Z,75.91
2023-02-09T02:14:54.004Z,76.57
2023-02-09T02:17:40.038Z,76.82
2023-02-09T02:20:27.939Z,77.20
2023-02-09T02:23:05.220Z,77.52
2023-02-09T02:25:55.767Z,77.57
2023-02-09T02:28:31.709Z,78.04
2023-02-09T02:31:28.344Z,78.06
2023-02-09T02:34:18.303Z,78.46
2023-02-09T02:37:15.634Z,79.01
2023-02-09T02:39:51.350Z,79.49
2023-02-09T02:42:54.415Z,79.11
2023-02-09T02:45:32.849Z,78.16
2023-02-09T02:48:16.517Z,78.15
2023-02-09T02:51:02.098Z,77.98
2023-02-09T02:53:31.319Z,79.04
2023-02-09T02:56:04.440Z,79.36
2023-02-09T02:58:32.573Z,77.91
2023-02-09T03:01:02.760Z,76.80
2023-02-09T03:03:33.073Z,78.08
2023-02-09T03:06:02.858Z,77.88
2023-02-09T03:08:29.340Z,78.50
2023-02-09T03:10:56.193Z,77.54
2023-02-09T03:13:55.498Z,78.00
2023-02-09T03:16:46.312Z,79.48
2023-02-09T03:19:31.299Z,78.92
2023-02-09T03:22:20.362Z,79.63
2023-02-09T03:25:00.338Z,79.38
2023-02-09T03:27:41.166Z,80.32
2023-02-09T03:30:11.515Z,80.48
2023-02-09T03:32:40.875Z,80.48
2023-02-09T03:35:10.943Z,80.11
2023-02-09T03:37:37.400Z,80.02
2023-02-09T03:40:04.123Z,80.26
2023-02-09T03:42:30.556Z,80.04
2023-02-09T03:44:57.041Z,80.20
2023-02-09T03:47:23.502Z,80.55
2023-02-09T03:49:49.951Z,80.38
2023-02-09T03:52:17.152Z,80.88
2023-02-09T03:54:43.754Z,81.42
2023-02-09T03:57:10.685Z,81.71
2023-02-09T03:59:37.715Z,81.54
2023-02-09T04:02:06.775Z,82.15
2023-02-09T04:04:33.246Z,81.87
2023-02-09T04:06:59.917Z,82.10
2023-02-09T04:09:27.855Z,82.24
2023-02-09T04:11:54.689Z,82.52
2023-02-09T04:14:21.127Z,82.00
2023-02-09T04:16:47.856Z,82.22
2023-02-09T04:19:14.409Z,82.48
2023-02-09T04:21:40.845Z,82.37
2023-02-09T04:24:08.290Z,82.60
2023-02-09T04:26:35.390Z,82.17
2023-02-09T04:29:01.831Z,82.44
2023-02-09T04:31:28.392Z,82.61
2023-02-09T04:33:55.896Z,82.36
2023-02-09T04:36:23.407Z,82.33
2023-02-09T04:38:50.342Z,83.05
2023-02-09T04:41:17.146Z,83.62
2023-02-09T04:43:43.625Z,83.79
2023-02-09T04:46:14.808Z,83.78
2023-02-09T04:48:41.826Z,83.63
2023-02-09T04:51:08.612Z,84.29
2023-02-09T04:53:35.147Z,84.31
2023-02-09T04:56:01.822Z,85.11
2023-02-09T04:58:46.900Z,85.78
2023-02-09T05:01:18.737Z,86.46
2023-02-09T05:03:45.258Z,86.91
2023-02-09T05:06:11.836Z,87.24
2023-02-09T05:08:38.246Z,86.22
2023-02-09T05:11:04.783Z,86.55
2023-02-09T05:13:31.234Z,87.22
2023-02-09T05:15:57.786Z,87.82
2023-02-09T05:18:26.060Z,87.62
2023-02-09T05:20:52.627Z,87.63
2023-02-09T05:23:19.223Z,87.94
2023-02-09T05:25:46.140Z,88.00
2023-02-09T05:28:12.758Z,88.72
2023-02-09T05:30:39.319Z,88.97
2023-02-09T05:33:05.832Z,89.28
2023-02-09T05:35:32.264Z,89.47
2023-02-09T05:37:58.676Z,89.19
2023-02-09T05:40:25.268Z,90.88
2023-02-09T05:42:51.749Z,90.99
2023-02-09T05:45:18.308Z,91.97
2023-02-09T05:47:45.513Z,92.34
2023-02-09T05:50:11.918Z,92.12
2023-02-09T05:52:38.331Z,92.41
2023-02-09T05:55:04.988Z,93.37
2023-02-09T05:57:31.405Z,93.56
2023-02-09T05:59:57.778Z,93.39
2023-02-09T06:02:24.251Z,94.44
2023-02-09T06:04:50.680Z,96.39
2023-02-09T06:10:13.423Z,98.73
2023-02-09T06:12:41.336Z,99.54
2023-02-09T06:15:09.791Z,98.77
2023-02-09T06:17:36.709Z,98.22
2023-02-09T06:20:03.834Z,99.85
2023-02-09T06:22:33.456Z,100.00
2023-02-09T06:25:00.726Z,100.00
2023-02-09T06:27:30.868Z,100.00
2023-02-09T06:29:57.322Z,100.00
2023-02-09T06:32:24.032Z,100.00
2023-02-09T06:34:57.919Z,100.00
2023-02-09T06:37:27.048Z,100.00
2023-02-09T06:40:01.528Z,100.00
2023-02-09T06:42:43.757Z,100.00
2023-02-09T06:45:18.148Z,100.00
2023-02-09T06:47:46.023Z,100.00
2023-02-09T06:50:16.917Z,100.00
2023-02-09T06:52:43.779Z,100.00
2023-02-09T06:55:10.810Z,100.00
2023-02-09T06:57:50.156Z,100.00
2023-02-09T07:00:17.504Z,100.00
2023-02-09T07:02:49.715Z,100.00
2023-02-09T07:05:18.100Z,100.00
2023-02-09T07:07:45.972Z,100.00
2023-02-09T07:10:15.394Z,100.00
2023-02-09T07:12:49.363Z,100.00
2023-02-09T07:15:16.693Z,100.00
2023-02-09T07:17:43.444Z,100.00
2023-02-09T07:20:10.636Z,100.00
2023-02-09T07:22:37.117Z,100.00
2023-02-09T07:25:03.834Z,100.00
2023-02-09T07:27:32.711Z,100.00
2023-02-09T07:30:00.899Z,100.00
2023-02-09T07:32:27.826Z,100.00
2023-02-09T07:34:55.848Z,100.00
2023-02-09T07:37:25.801Z,100.00
2023-02-09T07:39:54.024Z,100.00
2023-02-09T07:42:23.077Z,100.00
2023-02-09T07:44:55.377Z,100.00
2023-02-09T07:47:21.978Z,99.99
2023-02-09T07:49:51.783Z,99.26
2023-02-09T07:52:18.720Z,98.37
2023-02-09T07:54:45.960Z,98.34
2023-02-09T07:57:19.069Z,98.17
2023-02-09T08:00:02.028Z,97.21
2023-02-09T08:02:36.904Z,97.45
2023-02-09T08:05:07.980Z,97.22
2023-02-09T08:07:34.485Z,96.39
2023-02-09T08:10:00.934Z,95.79
2023-02-09T08:12:50.499Z,95.77
2023-02-09T08:15:24.401Z,95.66
2023-02-09T08:17:56.726Z,94.23
2023-02-09T08:20:30.277Z,90.91
2023-02-09T08:23:07.723Z,92.32
2023-02-09T08:25:35.811Z,86.42
2023-02-09T08:28:12.505Z,84.36
2023-02-09T08:30:39.127Z,85.89
2023-02-09T08:33:05.552Z,84.50
2023-02-09T08:35:31.991Z,86.03
2023-02-09T08:38:02.857Z,83.91
2023-02-09T08:40:30.825Z,81.09
2023-02-09T08:42:57.796Z,82.02
2023-02-09T08:45:28.462Z,84.68
2023-02-09T08:48:02.220Z,81.31
2023-02-09T08:50:28.686Z,81.27
2023-02-09T08:52:57.835Z,79.36
2023-02-09T08:55:24.490Z,81.53
2023-02-09T08:57:51.621Z,78.38
2023-02-09T09:00:18.788Z,79.20
2023-02-09T09:02:52.707Z,76.53
2023-02-09T09:05:19.184Z,75.52
2023-02-09T09:07:45.731Z,77.86
2023-02-09T09:10:22.244Z,71.33
2023-02-09T09:12:49.212Z,74.29
2023-02-09T09:15:15.608Z,76.02
2023-02-09T09:17:42.043Z,73.55
2023-02-09T09:20:08.980Z,73.53
2023-02-09T09:22:35.799Z,74.21
2023-02-09T09:25:02.730Z,72.74
2023-02-09T09:27:29.440Z,70.83
2023-02-09T09:29:58.946Z,69.47
2023-02-09T09:32:25.787Z,70.98
2023-02-09T09:35:07.806Z,70.29
2023-02-09T09:37:34.260Z,69.15
2023-02-09T09:40:00.725Z,67.20
2023-02-09T09:42:49.049Z,67.29
2023-02-09T09:45:24.960Z,65.71
2023-02-09T09:47:52.606Z,66.61
2023-02-09T09:50:26.327Z,66.07
2023-02-09T09:53:12.147Z,59.84
2023-02-09T09:55:39.334Z,63.45
2023-02-09T09:58:21.134Z,64.01
2023-02-09T10:00:49.164Z,58.51
2023-02-09T10:03:22.113Z,59.84
2023-02-09T10:06:03.170Z,61.10
2023-02-09T10:08:36.571Z,59.87
2023-02-09T10:11:11.836Z,60.56
2023-02-09T10:13:56.274Z,56.02
2023-02-09T10:16:34.521Z,60.49
2023-02-09T10:19:03.797Z,55.42
2023-02-09T10:21:34.822Z,59.74
2023-02-09T10:24:01.260Z,58.16
2023-02-09T10:26:33.253Z,55.95
2023-02-09T10:29:20.895Z,52.35
2023-02-09T10:31:54.844Z,52.39
2023-02-09T10:34:33.235Z,54.06
2023-02-09T10:37:48.203Z,54.57
2023-02-09T10:40:19.066Z,56.00
2023-02-09T10:43:07.153Z,54.85
2023-02-09T10:45:51.415Z,52.34
2023-02-09T10:48:20.621Z,52.81
2023-02-09T10:51:19.461Z,50.99
2023-02-09T10:54:07.257Z,54.72
2023-02-09T10:56:49.550Z,56.37
2023-02-09T10:59:19.032Z,57.42
2023-02-09T11:01:54.433Z,52.70
2023-02-09T11:04:23.799Z,54.42
2023-02-09T11:06:58.015Z,53.24
2023-02-09T11:09:28.825Z,52.20
2023-02-09T11:11:55.885Z,52.98
2023-02-09T11:14:22.966Z,49.50
2023-02-09T11:16:58.122Z,54.21
2023-02-09T11:20:05.193Z,53.66
2023-02-09T11:22:53.142Z,51.48
2023-02-09T11:25:41.044Z,53.45
2023-02-09T11:28:26.505Z,53.13
2023-02-09T11:31:17.737Z,50.61
2023-02-09T11:34:05.997Z,51.42
2023-02-09T11:37:02.323Z,51.63
2023-02-09T11:39:44.374Z,51.62
2023-02-09T11:42:34.440Z,50.98
2023-02-09T11:45:12.561Z,51.00
2023-02-09T11:47:57.970Z,50.54
2023-02-09T11:50:34.019Z,52.42
2023-02-09T11:53:21.334Z,51.82
2023-02-09T11:55:52.167Z,51.08
2023-02-09T11:58:33.771Z,52.70
2023-02-09T12:01:15.995Z,51.60
2023-02-09T12:03:55.036Z,52.26
2023-02-09T12:06:24.028Z,51.28
2023-02-09T12:08:59.423Z,53.09
2023-02-09T12:12:08.000Z,48.37
2023-02-09T12:14:41.505Z,49.00
2023-02-09T12:17:51.366Z,51.28
2023-02-09T12:20:29.230Z,51.85
2023-02-09T12:23:01.035Z,50.35
2023-02-09T12:25:51.496Z,50.09
2023-02-09T12:28:42.687Z,49.46
2023-02-09T12:31:20.535Z,51.10
2023-02-09T12:33:47.184Z,51.42
2023-02-09T12:36:13.600Z,52.24
2023-02-09T12:38:56.358Z,51.13
2023-02-09T12:41:23.356Z,49.53
2023-02-09T12:43:50.769Z,52.00
2023-02-09T12:46:17.293Z,48.42
2023-02-09T12:48:50.993Z,49.67
2023-02-09T12:51:39.326Z,51.73
2023-02-09T12:54:43.142Z,50.85
2023-02-09T12:57:15.829Z,50.79
2023-02-09T13:00:00.636Z,51.12
2023-02-09T13:02:36.080Z,52.25
2023-02-09T13:05:17.265Z,51.45
2023-02-09T13:08:11.336Z,52.15
2023-02-09T13:10:41.104Z,52.38
2023-02-09T13:13:18.672Z,51.10
2023-02-09T13:15:52.040Z,52.50
2023-02-09T13:18:38.549Z,49.22
2023-02-09T13:21:39.604Z,50.45
2023-02-09T13:24:19.036Z,50.73
2023-02-09T13:27:19.229Z,49.92
2023-02-09T13:29:53.589Z,52.75
2023-02-09T13:32:38.596Z,49.89
2023-02-09T13:35:18.442Z,51.65
2023-02-09T13:37:52.441Z,50.40
2023-02-09T13:40:23.528Z,51.87
2023-02-09T13:42:56.412Z,50.21
2023-02-09T13:45:26.664Z,51.37
2023-02-09T13:47:54.734Z,51.37
2023-02-09T13:50:23.922Z,50.77
2023-02-09T13:52:51.287Z,51.13
2023-02-09T13:55:26.217Z,51.78
2023-02-09T13:58:07.220Z,52.72
2023-02-09T14:00:39.431Z,51.42
2023-02-09T14:03:12.418Z,51.90
2023-02-09T14:05:48.882Z,51.56
2023-02-09T14:08:18.205Z,52.31
2023-02-09T14:10:54.045Z,52.08
2023-02-09T14:13:39.239Z,51.59
2023-02-09T14:16:07.262Z,53.12
2023-02-09T14:18:57.940Z,52.85
2023-02-09T14:21:44.797Z,52.51
2023-02-09T14:24:22.621Z,53.41
2023-02-09T14:26:59.387Z,52.01
2023-02-09T14:29:31.333Z,53.31
2023-02-09T14:32:36.555Z,53.15
2023-02-09T14:35:22.172Z,53.06
2023-02-09T14:37:50.096Z,53.42
2023-02-09T14:40:26.834Z,53.61
2023-02-09T14:43:11.674Z,52.26
2023-02-09T14:45:40.355Z,51.44
2023-02-09T14:48:16.744Z,52.52
2023-02-09T14:50:43.911Z,51.88
2023-02-09T14:53:13.687Z,52.56
2023-02-09T14:55:40.815Z,53.31
2023-02-09T14:58:21.508Z,53.75
2023-02-09T15:00:48.693Z,52.10
2023-02-09T15:03:15.692Z,53.15
2023-02-09T15:05:42.869Z,54.19
2023-02-09T15:08:15.943Z,53.67
2023-02-09T15:10:48.743Z,54.49
2023-02-09T15:13:16.190Z,52.92
2023-02-09T15:15:43.587Z,53.18
2023-02-09T15:18:19.051Z,53.40
2023-02-09T15:20:45.945Z,54.09
2023-02-09T15:23:12.896Z,55.01
2023-02-09T15:25:40.753Z,54.08
2023-02-09T15:28:14.418Z,54.30
2023-02-09T15:30:40.991Z,54.57
2023-02-09T15:33:12.594Z,54.99
2023-02-09T15:35:39.422Z,55.85
2023-02-09T15:38:06.117Z,56.26
2023-02-09T15:41:01.689Z,56.82
2023-02-09T15:43:48.000Z,56.80
2023-02-09T15:46:34.072Z,56.24
2023-02-09T15:49:01.577Z,56.03
2023-02-09T15:51:34.257Z,56.10
2023-02-09T15:54:05.398Z,56.97
2023-02-09T15:56:31.833Z,56.51
2023-02-09T15:59:03.520Z,57.51
2023-02-09T16:01:34.145Z,58.07
2023-02-09T16:04:14.469Z,58.57
2023-02-09T16:06:48.742Z,57.77
2023-02-09T16:09:19.966Z,58.66
2023-02-09T16:11:48.517Z,59.99
2023-02-09T16:14:17.123Z,60.79
2023-02-09T16:16:45.720Z,60.57
2023-02-09T16:19:13.480Z,60.86
2023-02-09T16:21:43.412Z,60.99
2023-02-09T16:24:21.334Z,61.57
2023-02-09T16:26:48.095Z,62.71
2023-02-09T16:29:15.358Z,63.02
2023-02-09T16:31:42.004Z,63.24
2023-02-09T16:34:09.395Z,63.67
2023-02-09T16:36:35.913Z,63.85
2023-02-09T16:39:03.492Z,64.49
2023-02-09T16:41:49.660Z,65.39
2023-02-09T16:44:24.633Z,66.12
2023-02-09T16:46:53.558Z,65.99
2023-02-09T16:49:34.754Z,65.63
2023-02-09T16:52:06.073Z,65.86
2023-02-09T16:54:40.641Z,65.91
2023-02-09T16:57:09.441Z,65.71
2023-02-09T16:59:35.905Z,66.59
2023-02-09T17:02:03.687Z,67.34
2023-02-09T17:04:30.217Z,66.91
2023-02-09T17:06:56.717Z,67.20
2023-02-09T17:09:23.102Z,67.64
2023-02-09T17:11:49.567Z,67.65
2023-02-09T17:14:15.962Z,68.08
2023-02-09T17:16:45.055Z,67.42
2023-02-09T17:19:15.314Z,68.19
2023-02-09T17:21:42.288Z,68.64
2023-02-09T17:24:15.297Z,68.83
2023-02-09T17:26:42.058Z,68.58
2023-02-09T17:29:09.026Z,69.45
2023-02-09T17:31:51.956Z,69.37
2023-02-09T17:34:20.538Z,69.15
2023-02-09T17:36:47.084Z,69.68
2023-02-09T17:39:13.947Z,69.28
2023-02-09T17:41:45.207Z,70.28
2023-02-09T17:44:22.250Z,70.52
2023-02-09T17:46:55.702Z,71.08
2023-02-09T17:49:22.199Z,70.37
2023-02-09T17:51:49.275Z,70.13
2023-02-09T17:54:18.758Z,70.04
2023-02-09T17:56:45.666Z,70.02
2023-02-09T17:59:13.376Z,70.55
2023-02-09T18:01:42.517Z,70.96
2023-02-09T18:04:16.462Z,70.96
2023-02-09T18:06:42.905Z,70.99
2023-02-09T18:09:12.429Z,71.23
2023-02-09T18:12:02.049Z,71.52
2023-02-09T18:14:31.107Z,71.07
2023-02-09T18:16:57.600Z,70.87
2023-02-09T18:19:24.681Z,70.48
2023-02-09T18:21:53.668Z,71.17
2023-02-09T18:24:22.294Z,71.43
2023-02-09T18:26:50.983Z,71.40
2023-02-09T18:29:18.420Z,71.45
2023-02-09T18:31:46.583Z,72.38
2023-02-09T18:34:13.880Z,72.40
2023-02-09T18:36:40.287Z,71.95
2023-02-09T18:39:06.775Z,72.57
2023-02-09T18:41:33.366Z,72.71
2023-02-09T18:43:59.754Z,73.35
2023-02-09T18:46:27.022Z,72.55
2023-02-09T18:48:54.676Z,72.84
2023-02-09T18:51:21.811Z,73.02
2023-02-09T18:53:50.141Z,72.72
2023-02-09T18:56:19.217Z,72.88
2023-02-09T18:58:46.191Z,72.84
2023-02-09T19:01:13.607Z,72.79
2023-02-09T19:03:40.159Z,73.28
2023-02-09T19:06:10.814Z,73.42
2023-02-09T19:08:38.568Z,73.72
2023-02-09T19:11:06.151Z,73.79
2023-02-09T19:13:34.028Z,74.41
2023-02-09T19:16:01.128Z,74.60
2023-02-09T19:18:28.194Z,74.69
2023-02-09T19:20:57.251Z,74.47
2023-02-09T19:23:24.718Z,75.25
2023-02-09T19:26:01.668Z,75.96
2023-02-09T19:28:28.186Z,76.28
2023-02-09T19:30:54.724Z,76.24
2023-02-09T19:33:23.321Z,76.26
2023-02-09T19:35:57.757Z,77.00
2023-02-09T19:38:25.629Z,77.23
2023-02-09T19:41:05.116Z,77.84
2023-02-09T19:43:36.051Z,77.94
2023-02-09T19:46:02.549Z,77.96
2023-02-09T19:48:28.961Z,78.68
2023-02-09T19:50:56.970Z,78.04
2023-02-09T19:53:24.020Z,77.95
2023-02-09T19:55:52.102Z,77.99
2023-02-09T19:58:22.296Z,78.17
2023-02-09T20:00:50.265Z,78.50
2023-02-09T20:03:17.451Z,78.91
2023-02-09T20:05:44.803Z,79.26
2023-02-09T20:08:15.765Z,79.30
2023-02-09T20:10:43.920Z,79.34
2023-02-09T20:13:14.122Z,79.15
2023-02-09T20:15:42.262Z,79.81
2023-02-09T20:18:09.299Z,79.94
2023-02-09T20:20:35.785Z,79.88
2023-02-09T20:23:02.183Z,80.40
2023-02-09T20:25:28.632Z,80.00
2023-02-09T20:27:55.697Z,80.35
2023-02-09T20:30:22.157Z,80.36
2023-02-09T20:32:48.641Z,80.42
2023-02-09T20:35:15.193Z,80.55
2023-02-09T20:37:41.650Z,80.61
2023-02-09T20:40:11.302Z,81.16
2023-02-09T20:42:57.127Z,81.52
2023-02-09T20:45:42.522Z,81.70
2023-02-09T20:48:08.947Z,82.40
2023-02-09T20:50:35.438Z,83.49
2023-02-09T20:53:03.277Z,83.44
2023-02-09T20:55:30.409Z,83.34
2023-02-09T20:57:56.874Z,83.27
2023-02-09T21:00:23.411Z,84.65
2023-02-09T21:02:49.905Z,83.98
2023-02-09T21:05:16.679Z,84.20
2023-02-09T21:07:43.266Z,84.38
2023-02-09T21:10:12.763Z,84.10
2023-02-09T21:12:39.294Z,84.80
2023-02-09T21:15:06.050Z,85.25
2023-02-09T21:17:32.565Z,85.67
2023-02-09T21:19:58.986Z,85.42
2023-02-09T21:22:25.407Z,85.97
2023-02-09T21:24:51.860Z,86.48
2023-02-09T21:27:18.377Z,87.00
2023-02-09T21:29:44.865Z,88.28
2023-02-09T21:32:11.301Z,89.63
2023-02-09T21:34:37.744Z,89.61
2023-02-09T21:37:07.724Z,89.24
2023-02-09T21:39:34.196Z,90.28
2023-02-09T21:42:18.984Z,90.29
2023-02-09T21:44:45.386Z,90.37
2023-02-09T21:47:12.084Z,91.74
2023-02-09T21:49:38.584Z,91.39
2023-02-09T21:52:05.523Z,89.66
2023-02-09T21:54:33.926Z,88.79
2023-02-09T21:57:01.403Z,88.78
2023-02-09T21:59:28.621Z,88.96
2023-02-09T22:01:55.265Z,91.20
2023-02-09T22:04:21.801Z,90.34
2023-02-09T22:06:48.481Z,90.49
2023-02-09T22:09:14.977Z,89.87
2023-02-09T22:11:41.608Z,89.64
2023-02-09T22:14:08.031Z,90.50
2023-02-09T22:16:34.468Z,91.43
2023-02-09T22:19:00.917Z,91.02
2023-02-09T22:21:27.478Z,91.43
2023-02-09T22:23:54.377Z,91.00
2023-02-09T22:26:21.214Z,91.30
2023-02-09T22:28:47.795Z,91.47
2023-02-09T22:31:19.117Z,91.37
2023-02-09T22:33:45.779Z,91.08
2023-02-09T22:36:14.991Z,91.13
2023-02-09T22:38:42.140Z,91.39
2023-02-09T22:41:21.271Z,91.91
2023-02-09T22:43:50.674Z,92.17
2023-02-09T22:46:17.419Z,92.07
2023-02-09T22:48:44.377Z,92.58
2023-02-09T22:51:17.129Z,92.71
2023-02-09T22:53:44.798Z,93.69
2023-02-09T22:56:12.380Z,92.79
2023-02-09T22:58:38.899Z,93.99
2023-02-09T23:01:06.045Z,93.86
2023-02-09T23:03:33.814Z,93.24
2023-02-09T23:06:01.799Z,92.19
2023-02-09T23:08:28.758Z,92.99
2023-02-09T23:11:01.427Z,92.72
2023-02-09T23:13:27.916Z,93.24
2023-02-09T23:15:54.394Z,92.89
2023-02-09T23:18:20.891Z,92.29
2023-02-09T23:20:48.954Z,93.08
2023-02-09T23:23:16.275Z,93.30
2023-02-09T23:25:42.782Z,93.71
2023-02-09T23:28:09.250Z,94.41
2023-02-09T23:30:35.718Z,95.02
2023-02-09T23:33:02.282Z,95.48
2023-02-09T23:35:28.717Z,95.43
2023-02-09T23:37:55.149Z,94.34
2023-02-09T23:40:21.569Z,94.40
2023-02-09T23:42:47.982Z,94.17
2023-02-09T23:45:14.605Z,95.04
2023-02-09T23:47:41.019Z,94.12
2023-02-09T23:50:07.516Z,95.29
2023-02-09T23:52:33.967Z,95.19
2023-02-09T23:55:00.485Z,95.28
2023-02-09T23:57:26.926Z,94.78
2023-02-09T23:59:53.352Z,94.47
